地図

経路データ

SID SEASON NUMBER BASIN SUBBASIN NAME ISO_TIME NATURE LAT LON WMO_WIND WMO_PRES WMO_AGENCY TRACK_TYPE DIST2LAND LANDFALL IFLAG USA_AGENCY USA_ATCF_ID USA_LAT USA_LON USA_RECORD USA_STATUS USA_WIND USA_PRES USA_SSHS USA_R34_NE USA_R34_SE USA_R34_SW USA_R34_NW USA_R50_NE USA_R50_SE USA_R50_SW USA_R50_NW USA_R64_NE USA_R64_SE USA_R64_SW USA_R64_NW USA_POCI USA_ROCI USA_RMW USA_EYE TOKYO_LAT TOKYO_LON TOKYO_GRADE TOKYO_WIND TOKYO_PRES TOKYO_R50_DIR TOKYO_R50_LONG TOKYO_R50_SHORT TOKYO_R30_DIR TOKYO_R30_LONG TOKYO_R30_SHORT TOKYO_LAND CMA_LAT CMA_LON CMA_CAT CMA_WIND CMA_PRES HKO_LAT HKO_LON HKO_CAT HKO_WIND HKO_PRES NEWDELHI_LAT NEWDELHI_LON NEWDELHI_GRADE NEWDELHI_WIND NEWDELHI_PRES NEWDELHI_CI NEWDELHI_DP NEWDELHI_POCI REUNION_LAT REUNION_LON REUNION_TYPE REUNION_WIND REUNION_PRES REUNION_TNUM REUNION_CI REUNION_RMW REUNION_R34_NE REUNION_R34_SE REUNION_R34_SW REUNION_R34_NW REUNION_R50_NE REUNION_R50_SE REUNION_R50_SW REUNION_R50_NW REUNION_R64_NE REUNION_R64_SE REUNION_R64_SW REUNION_R64_NW BOM_LAT BOM_LON BOM_TYPE BOM_WIND BOM_PRES BOM_TNUM BOM_CI BOM_RMW BOM_R34_NE BOM_R34_SE BOM_R34_SW BOM_R34_NW BOM_R50_NE BOM_R50_SE BOM_R50_SW BOM_R50_NW BOM_R64_NE BOM_R64_SE BOM_R64_SW BOM_R64_NW BOM_ROCI BOM_POCI BOM_EYE BOM_POS_METHOD BOM_PRES_METHOD NADI_LAT NADI_LON NADI_CAT NADI_WIND NADI_PRES WELLINGTON_LAT WELLINGTON_LON WELLINGTON_WIND WELLINGTON_PRES DS824_LAT DS824_LON DS824_STAGE DS824_WIND DS824_PRES TD9636_LAT TD9636_LON TD9636_STAGE TD9636_WIND TD9636_PRES TD9635_LAT TD9635_LON TD9635_WIND TD9635_PRES TD9635_ROCI NEUMANN_LAT NEUMANN_LON NEUMANN_CLASS NEUMANN_WIND NEUMANN_PRES MLC_LAT MLC_LON MLC_CLASS MLC_WIND MLC_PRES USA_GUST BOM_GUST BOM_GUST_PER REUNION_GUST REUNION_GUST_PER USA_SEAHGT USA_SEARAD_NE USA_SEARAD_SE USA_SEARAD_SW USA_SEARAD_NW STORM_SPEED STORM_DIR
1951204N26153 1951 45 WP MM NOT_NAMED 1951-07-23 06:00:00 TS 25.8000 153.100 main 1602 1587 __O___________ -1 25.8000 153.100 0 1012 3 312
1951204N26153 1951 45 WP MM NOT_NAMED 1951-07-23 09:00:00 TS 25.8999 152.975 main 1587 1565 __P___________ -1 25.8999 152.975 0 1012 3 306
1951204N26153 1951 45 WP MM NOT_NAMED 1951-07-23 12:00:00 TS 26.0000 152.800 main 1565 1543 __O___________ -1 26.0000 152.800 0 1012 4 298
1951204N26153 1951 45 WP MM NOT_NAMED 1951-07-23 15:00:00 TS 26.1001 152.550 main 1543 1514 __P___________ -1 26.1001 152.550 0 1012 5 294
1951204N26153 1951 45 WP MM NOT_NAMED 1951-07-23 18:00:00 TS 26.2000 152.300 main 1514 1499 __O___________ -1 26.2000 152.300 0 1012 4 301
1951204N26153 1951 45 WP MM NOT_NAMED 1951-07-23 21:00:00 TS 26.3073 152.157 main 1499 1477 __P___________ -1 26.3073 152.157 0 1012 3 307
1951204N26153 1951 45 WP MM NOT_NAMED 1951-07-24 00:00:00 TS 26.4000 152.000 main 1477 1455 __O___________ -1 26.4000 152.000 0 1012 4 292
1951204N26153 1951 45 WP MM NOT_NAMED 1951-07-24 03:00:00 TS 26.4574 151.737 main 1447 1426 __P___________ -1 26.4574 151.737 0 1011 5 281
1951204N26153 1951 45 WP MM NOT_NAMED 1951-07-24 06:00:00 TS 26.5000 151.400 main 1426 1391 __O___________ -1 26.5000 151.400 0 1010 6 279
1951204N26153 1951 45 WP MM NOT_NAMED 1951-07-24 09:00:00 TS 26.5574 151.023 main 1391 1363 __P___________ -1 26.5574 151.023 0 1010 7 278
1951204N26153 1951 45 WP MM NOT_NAMED 1951-07-24 12:00:00 TS 26.6000 150.600 main 1363 1337 __O___________ -1 26.6000 150.600 0 1010 8 274
1951204N26153 1951 45 WP MM NOT_NAMED 1951-07-24 15:00:00 TS 26.6075 150.150 main 1330 1304 __P___________ -1 26.6075 150.150 0 1009 8 270
1951204N26153 1951 45 WP MM NOT_NAMED 1951-07-24 18:00:00 TS 26.6000 149.700 main 1304 1279 __O___________ -1 26.6000 149.700 0 1008 8 269
1951204N26153 1951 45 WP MM NOT_NAMED 1951-07-24 21:00:00 TS 26.5999 149.278 main 1279 1254 __P___________ -1 26.5999 149.278 0 1008 7 270
1951204N26153 1951 45 WP MM NOT_NAMED 1951-07-25 00:00:00 TS 26.6000 148.900 main 1254 1236 __O___________ -1 26.6000 148.900 0 1008 6 271
1951204N26153 1951 45 WP MM NOT_NAMED 1951-07-25 03:00:00 TS 26.6073 148.585 main 1236 1218 __P___________ -1 26.6073 148.585 0 1008 5 270
1951204N26153 1951 45 WP MM NOT_NAMED 1951-07-25 06:00:00 TS 26.6000 148.300 main 1218 1206 __O___________ -1 26.6000 148.300 0 1008 5 263
1951204N26153 1951 45 WP MM NOT_NAMED 1951-07-25 09:00:00 TS 26.5424 148.000 main 1210 1193 __P___________ -1 26.5424 148.000 0 1008 5 259
1951204N26153 1951 45 WP MM NOT_NAMED 1951-07-25 12:00:00 TS 26.5000 147.700 main 1193 1177 __O___________ -1 26.5000 147.700 0 1008 5 269
1951204N26153 1951 45 WP MM NOT_NAMED 1951-07-25 15:00:00 TS 26.5349 147.408 main 1177 1151 __P___________ -1 26.5349 147.408 0 1008 5 281
1951204N26153 1951 45 WP MM NOT_NAMED 1951-07-25 18:00:00 TS 26.6000 147.100 main 1151 1135 __O___________ -1 26.6000 147.100 0 1008 6 281
1951204N26153 1951 45 WP MM NOT_NAMED 1951-07-25 21:00:00 TS 26.6500 146.757 main 1135 1104 __P___________ -1 26.6500 146.757 0 1008 6 279
1951204N26153 1951 45 WP MM NOT_NAMED 1951-07-26 00:00:00 TS 26.7000 146.400 main 1104 1088 __O___________ -1 26.7000 146.400 0 1008 6 279
1951204N26153 1951 45 WP MM NOT_NAMED 1951-07-26 03:00:00 TS 26.7421 146.080 main 1088 1058 __P___________ -1 26.7421 146.080 0 1008 6 279
1951204N26153 1951 45 WP MM NOT_NAMED 1951-07-26 06:00:00 TS 26.8000 145.700 main 1058 1025 __O___________ -1 26.8000 145.700 0 1008 8 280
1951204N26153 1951 45 WP MM NOT_NAMED 1951-07-26 09:00:00 TS 26.8853 145.158 main 1025 988 __P___________ -1 26.8853 145.158 0 1008 10 282
1951204N26153 1951 45 WP MM NOT_NAMED 1951-07-26 12:00:00 TS 27.0000 144.600 main 988 961 __O___________ -1 27.0000 144.600 0 1008 9 287
1951204N26153 1951 45 WP MM NOT_NAMED 1951-07-26 15:00:00 TS 27.1497 144.178 main 961 925 __P___________ -1 27.1497 144.178 0 1008 8 293
1951204N26153 1951 45 WP MM NOT_NAMED 1951-07-26 18:00:00 TS 27.3000 143.800 main 925 903 __O___________ -1 27.3000 143.800 0 1008 7 291
1951204N26153 1951 45 WP MM NOT_NAMED 1951-07-26 21:00:00 TS 27.3996 143.430 main 900 876 __P___________ -1 27.3996 143.430 0 1008 7 286
1951204N26153 1951 45 WP MM NOT_NAMED 1951-07-27 00:00:00 TS 27.5000 143.000 main 876 850 __O___________ -1 27.5000 143.000 1 23 1008 9 286
1951204N26153 1951 45 WP MM NOT_NAMED 1951-07-27 03:00:00 TS 27.6500 142.438 main 848 810 __P___________ -1 27.6500 142.438 1 23 1007 11 286
1951204N26153 1951 45 WP MM NOT_NAMED 1951-07-27 06:00:00 TS 27.8000 141.800 main 810 781 __O___________ -1 27.8000 141.800 1 23 1006 12 282
1951204N26153 1951 45 WP MM NOT_NAMED 1951-07-27 09:00:00 TS 27.9000 141.142 main 778 751 __P___________ -1 27.9000 141.142 1 23 1006 12 280
1951204N26153 1951 45 WP MM NOT_NAMED 1951-07-27 12:00:00 TS 28.0000 140.500 main 751 714 __O___________ -1 28.0000 140.500 1 23 1006 11 282
1951204N26153 1951 45 WP MM NOT_NAMED 1951-07-27 15:00:00 TS 28.1347 139.927 main 708 664 __P___________ -1 28.1347 139.927 1 23 1006 10 287
1951204N26153 1951 45 WP MM NOT_NAMED 1951-07-27 18:00:00 TS 28.3000 139.400 main 664 621 __O___________ -1 28.3000 139.400 1 23 1006 10 290
1951204N26153 1951 45 WP MM NOT_NAMED 1951-07-27 21:00:00 TS 28.4852 138.840 main 616 579 __P___________ -1 28.4852 138.840 1 1007 10 294
1951204N26153 1951 45 WP MM NOT_NAMED 1951-07-28 00:00:00 TS 28.7000 138.400 main 579 551 __O___________ -1 28.7000 138.400 0 1008 7 307
1951204N26153 1951 45 WP MM NOT_NAMED 1951-07-28 03:00:00 TS 28.9272 138.182 main 551 516 __P___________ -1 28.9272 138.182 0 1008 6 332
1951204N26153 1951 45 WP MM NOT_NAMED 1951-07-28 06:00:00 TS 29.2000 138.100 main 516 482 __O___________ -1 29.2000 138.100 0 1008 6 347
1951204N26153 1951 45 WP MM NOT_NAMED 1951-07-28 09:00:00 TS 29.5500 138.013 main 482 442 __P___________ -1 29.5500 138.013 0 1009 7 353
1951204N26153 1951 45 WP MM NOT_NAMED 1951-07-28 12:00:00 TS 29.9000 138.000 main 442 422 __O___________ -1 29.9000 138.000 0 1010 6 6
1951204N26153 1951 45 WP MM NOT_NAMED 1951-07-28 15:00:00 TS 30.1575 138.077 main 417 403 __P___________ -1 30.1575 138.077 0 1010 5 19
1951204N26153 1951 45 WP MM NOT_NAMED 1951-07-28 18:00:00 TS 30.4000 138.200 main 403 382 __O___________ -1 30.4000 138.200 0 1010 6 21
1951204N26153 1951 45 WP MM NOT_NAMED 1951-07-28 21:00:00 TS 30.6850 138.307 main 382 362 __P___________ -1 30.6850 138.307 0 1010 6 16
1951204N26153 1951 45 WP MM NOT_NAMED 1951-07-29 00:00:00 TS 31.0000 138.400 main 362 __O___________ -1 31.0000 138.400 0 1010 7 13

デジタル台風データ・検索

IBTrACS Databaseについて

本データベースは、米国NOAAが公開する1842年以降の世界の熱帯低気圧のベストトラックデータアーカイブInternational Best Track Archive for Climate Stewardship (IBTrACS)を、ウェブで閲覧しやすい形式に変換したものです。

最終更新日:2021-10-21